sensor_id;sensor_type;location;lat;lon;timestamp;pressure;altitude;pressure_sealevel;temperature;humidity
38912;BME280;28444;48.056;14.408;2023-01-31T00:01:39;97897.63;;;1.92;86.38
38912;BME280;28444;48.056;14.408;2023-01-31T00:04:08;97902.53;;;1.93;87.21
38912;BME280;28444;48.056;14.408;2023-01-31T00:06:39;97916.00;;;1.99;86.07
38912;BME280;28444;48.056;14.408;2023-01-31T00:09:08;97920.41;;;2.02;85.55
38912;BME280;28444;48.056;14.408;2023-01-31T00:11:36;97907.44;;;2.01;85.85
38912;BME280;28444;48.056;14.408;2023-01-31T00:14:04;97922.66;;;1.92;86.22
38912;BME280;28444;48.056;14.408;2023-01-31T00:16:31;97921.91;;;1.92;85.77
38912;BME280;28444;48.056;14.408;2023-01-31T00:18:58;97923.16;;;1.97;85.27
38912;BME280;28444;48.056;14.408;2023-01-31T00:21:27;97918.97;;;1.96;85.51
38912;BME280;28444;48.056;14.408;2023-01-31T00:23:55;97921.41;;;2.05;85.59
38912;BME280;28444;48.056;14.408;2023-01-31T00:26:25;97915.28;;;2.04;85.51
38912;BME280;28444;48.056;14.408;2023-01-31T00:28:55;97921.38;;;2.10;85.65
38912;BME280;28444;48.056;14.408;2023-01-31T00:31:23;97920.63;;;2.10;85.33
38912;BME280;28444;48.056;14.408;2023-01-31T00:33:51;97920.16;;;2.06;85.68
38912;BME280;28444;48.056;14.408;2023-01-31T00:36:24;97913.56;;;2.01;86.29
38912;BME280;28444;48.056;14.408;2023-01-31T00:38:53;97919.69;;;2.07;86.17
38912;BME280;28444;48.056;14.408;2023-01-31T00:41:22;97919.44;;;2.11;85.63
38912;BME280;28444;48.056;14.408;2023-01-31T00:43:49;97911.34;;;2.05;86.48
38912;BME280;28444;48.056;14.408;2023-01-31T00:46:16;97930.22;;;2.05;86.19
38912;BME280;28444;48.056;14.408;2023-01-31T00:48:43;97920.16;;;2.06;86.03
38912;BME280;28444;48.056;14.408;2023-01-31T00:51:10;97915.00;;;2.08;85.87
38912;BME280;28444;48.056;14.408;2023-01-31T00:53:36;97919.94;;;2.04;86.05
38912;BME280;28444;48.056;14.408;2023-01-31T00:56:17;97917.00;;;2.02;86.16
38912;BME280;28444;48.056;14.408;2023-01-31T00:58:44;97921.16;;;2.03;85.62
38912;BME280;28444;48.056;14.408;2023-01-31T01:01:20;97918.91;;;2.07;86.21
38912;BME280;28444;48.056;14.408;2023-01-31T01:03:47;97926.53;;;2.03;87.05
38912;BME280;28444;48.056;14.408;2023-01-31T01:06:14;97931.47;;;1.99;86.54
38912;BME280;28444;48.056;14.408;2023-01-31T01:08:41;97918.69;;;2.05;85.89
38912;BME280;28444;48.056;14.408;2023-01-31T01:11:18;97925.06;;;2.07;85.40
38912;BME280;28444;48.056;14.408;2023-01-31T01:13:46;97941.75;;;2.06;85.79
38912;BME280;28444;48.056;14.408;2023-01-31T01:16:18;97934.38;;;2.06;85.62
38912;BME280;28444;48.056;14.408;2023-01-31T01:18:46;97922.59;;;2.09;86.37
38912;BME280;28444;48.056;14.408;2023-01-31T01:21:23;97920.16;;;2.06;85.30
38912;BME280;28444;48.056;14.408;2023-01-31T01:23:50;97919.69;;;2.07;84.95
38912;BME280;28444;48.056;14.408;2023-01-31T01:26:20;97913.03;;;2.08;85.42
38912;BME280;28444;48.056;14.408;2023-01-31T01:28:47;97905.22;;;2.05;84.47
38912;BME280;28444;48.056;14.408;2023-01-31T01:31:15;97898.34;;;1.98;85.32
38912;BME280;28444;48.056;14.408;2023-01-31T01:33:43;97893.94;;;1.95;85.30
38912;BME280;28444;48.056;14.408;2023-01-31T01:36:11;97900.56;;;2.00;85.27
38912;BME280;28444;48.056;14.408;2023-01-31T01:38:39;97921.41;;;1.99;85.75
38912;BME280;28444;48.056;14.408;2023-01-31T01:41:07;97918.22;;;2.01;85.77
38912;BME280;28444;48.056;14.408;2023-01-31T01:43:55;97924.56;;;2.03;85.98
38912;BME280;28444;48.056;14.408;2023-01-31T01:46:48;97921.66;;;2.01;86.19
38912;BME280;28444;48.056;14.408;2023-01-31T01:52:02;97923.88;;;1.97;86.08
38912;BME280;28444;48.056;14.408;2023-01-31T01:54:40;97946.91;;;1.98;85.97
38912;BME280;28444;48.056;14.408;2023-01-31T01:57:10;97930.97;;;1.95;86.46
38912;BME280;28444;48.056;14.408;2023-01-31T01:59:42;97949.63;;;1.98;85.79
38912;BME280;28444;48.056;14.408;2023-01-31T02:02:12;97947.66;;;1.99;85.81
38912;BME280;28444;48.056;14.408;2023-01-31T02:04:41;97948.41;;;1.93;86.20
38912;BME280;28444;48.056;14.408;2023-01-31T02:07:09;97946.44;;;1.94;85.85
38912;BME280;28444;48.056;14.408;2023-01-31T02:09:44;97950.59;;;1.95;85.16
38912;BME280;28444;48.056;14.408;2023-01-31T02:12:12;97953.03;;;1.99;85.12
38912;BME280;28444;48.056;14.408;2023-01-31T02:14:40;97951.09;;;1.93;85.59
38912;BME280;28444;48.056;14.408;2023-01-31T02:17:12;97945.72;;;1.88;85.33
38912;BME280;28444;48.056;14.408;2023-01-31T02:20:00;97958.22;;;1.91;86.29
38912;BME280;28444;48.056;14.408;2023-01-31T02:23:09;97966.06;;;1.89;86.46
38912;BME280;28444;48.056;14.408;2023-01-31T02:29:43;97944.97;;;1.87;85.04
38912;BME280;28444;48.056;14.408;2023-01-31T02:36:12;97944.00;;;1.90;86.38
38912;BME280;28444;48.056;14.408;2023-01-31T02:39:52;97960.19;;;1.90;85.80
38912;BME280;28444;48.056;14.408;2023-01-31T02:42:23;97956.50;;;1.88;86.97
38912;BME280;28444;48.056;14.408;2023-01-31T02:45:09;97948.16;;;1.91;86.78
38912;BME280;28444;48.056;14.408;2023-01-31T02:48:00;97963.59;;;1.91;86.43
38912;BME280;28444;48.056;14.408;2023-01-31T02:50:59;97956.75;;;1.90;86.73
38912;BME280;28444;48.056;14.408;2023-01-31T02:56:15;97956.97;;;1.98;86.04
38912;BME280;28444;48.056;14.408;2023-01-31T02:58:52;97967.03;;;1.97;85.94
38912;BME280;28444;48.056;14.408;2023-01-31T03:01:23;97956.50;;;1.93;85.48
38912;BME280;28444;48.056;14.408;2023-01-31T03:03:59;97945.44;;;1.97;85.94
38912;BME280;28444;48.056;14.408;2023-01-31T03:06:57;97964.56;;;1.99;85.27
38912;BME280;28444;48.056;14.408;2023-01-31T03:12:57;97989.84;;;1.96;85.81
38912;BME280;28444;48.056;14.408;2023-01-31T03:16:08;97974.38;;;2.02;85.16
38912;BME280;28444;48.056;14.408;2023-01-31T03:19:06;97994.25;;;1.93;85.37
38912;BME280;28444;48.056;14.408;2023-01-31T03:21:41;97982.25;;;2.00;85.16
38912;BME280;28444;48.056;14.408;2023-01-31T03:24:10;97989.09;;;2.01;84.96
38912;BME280;28444;48.056;14.408;2023-01-31T03:26:38;98000.88;;;1.98;84.37
38912;BME280;28444;48.056;14.408;2023-01-31T03:29:05;98020.00;;;1.95;85.14
38912;BME280;28444;48.056;14.408;2023-01-31T03:31:38;97997.19;;;2.01;84.58
38912;BME280;28444;48.056;14.408;2023-01-31T03:34:08;97990.81;;;2.04;84.42
38912;BME280;28444;48.056;14.408;2023-01-31T03:36:55;98005.28;;;2.01;84.56
38912;BME280;28444;48.056;14.408;2023-01-31T03:39:42;98015.09;;;2.04;84.14
38912;BME280;28444;48.056;14.408;2023-01-31T03:42:18;98022.72;;;2.00;84.74
38912;BME280;28444;48.056;14.408;2023-01-31T03:44:59;98033.25;;;1.98;84.29
38912;BME280;28444;48.056;14.408;2023-01-31T03:47:35;98020.00;;;2.00;83.93
38912;BME280;28444;48.056;14.408;2023-01-31T03:50:11;98027.13;;;1.98;84.48
38912;BME280;28444;48.056;14.408;2023-01-31T03:55:36;98035.44;;;2.05;84.57
38912;BME280;28444;48.056;14.408;2023-01-31T03:58:05;98027.84;;;1.98;85.04
38912;BME280;28444;48.056;14.408;2023-01-31T04:00:35;98027.84;;;1.98;84.15
38912;BME280;28444;48.056;14.408;2023-01-31T04:03:13;98032.25;;;1.96;85.28
38912;BME280;28444;48.056;14.408;2023-01-31T04:05:42;98042.31;;;1.95;83.58
38912;BME280;28444;48.056;14.408;2023-01-31T04:08:09;98042.06;;;1.99;83.68
38912;BME280;28444;48.056;14.408;2023-01-31T04:10:36;98044.28;;;1.95;83.96
38912;BME280;28444;48.056;14.408;2023-01-31T04:13:03;98046.75;;;1.98;84.50
38912;BME280;28444;48.056;14.408;2023-01-31T04:15:29;98051.63;;;2.00;84.21
38912;BME280;28444;48.056;14.408;2023-01-31T04:17:56;98044.78;;;1.99;84.19
38912;BME280;28444;48.056;14.408;2023-01-31T04:20:22;98049.44;;;1.98;84.70
38912;BME280;28444;48.056;14.408;2023-01-31T04:22:49;98063.66;;;1.99;84.97
38912;BME280;28444;48.056;14.408;2023-01-31T04:25:16;98049.44;;;1.98;84.30
38912;BME280;28444;48.056;14.408;2023-01-31T04:27:43;98064.16;;;1.97;84.31
38912;BME280;28444;48.056;14.408;2023-01-31T04:30:10;98066.34;;;1.99;83.96
38912;BME280;28444;48.056;14.408;2023-01-31T04:32:37;98071.00;;;1.98;83.05
38912;BME280;28444;48.056;14.408;2023-01-31T04:35:04;98075.91;;;2.00;83.33
38912;BME280;28444;48.056;14.408;2023-01-31T04:37:31;98079.38;;;2.00;84.13
38912;BME280;28444;48.056;14.408;2023-01-31T04:39:58;98091.13;;;2.03;84.34
38912;BME280;28444;48.056;14.408;2023-01-31T04:42:25;98089.41;;;2.00;84.81
38912;BME280;28444;48.056;14.408;2023-01-31T04:44:51;98088.19;;;2.01;83.86
38912;BME280;28444;48.056;14.408;2023-01-31T04:47:18;98074.44;;;1.99;84.06
38912;BME280;28444;48.056;14.408;2023-01-31T04:49:46;98076.41;;;1.98;84.08
38912;BME280;28444;48.056;14.408;2023-01-31T04:52:12;98080.09;;;1.95;84.96
38912;BME280;28444;48.056;14.408;2023-01-31T04:54:39;98083.53;;;1.96;84.67
38912;BME280;28444;48.056;14.408;2023-01-31T04:57:07;98091.63;;;1.90;85.22
38912;BME280;28444;48.056;14.408;2023-01-31T04:59:34;98096.28;;;1.89;84.89
38912;BME280;28444;48.056;14.408;2023-01-31T05:02:01;98106.56;;;1.91;84.92
38912;BME280;28444;48.056;14.408;2023-01-31T05:04:28;98108.28;;;1.94;84.60
38912;BME280;28444;48.056;14.408;2023-01-31T05:06:54;98113.44;;;1.98;83.59
38912;BME280;28444;48.056;14.408;2023-01-31T05:09:21;98123.97;;;1.96;83.56
38912;BME280;28444;48.056;14.408;2023-01-31T05:11:48;98125.47;;;2.02;84.18
38912;BME280;28444;48.056;14.408;2023-01-31T05:14:15;98120.78;;;2.03;84.00
38912;BME280;28444;48.056;14.408;2023-01-31T05:16:42;98124.47;;;2.00;83.55
38912;BME280;28444;48.056;14.408;2023-01-31T05:19:16;98111.25;;;1.96;83.58
38912;BME280;28444;48.056;14.408;2023-01-31T05:21:43;98123.25;;;1.95;83.37
38912;BME280;28444;48.056;14.408;2023-01-31T05:24:29;98149.03;;;1.96;84.39
38912;BME280;28444;48.056;14.408;2023-01-31T05:26:58;98130.13;;;1.90;84.68
38912;BME280;28444;48.056;14.408;2023-01-31T05:29:28;98140.66;;;1.88;84.48
38912;BME280;28444;48.056;14.408;2023-01-31T05:31:56;98145.56;;;1.84;84.52
38912;BME280;28444;48.056;14.408;2023-01-31T05:34:24;98136.75;;;1.89;84.07
38912;BME280;28444;48.056;14.408;2023-01-31T05:36:51;98144.84;;;1.89;84.56
38912;BME280;28444;48.056;14.408;2023-01-31T05:39:18;98139.44;;;1.89;84.88
38912;BME280;28444;48.056;14.408;2023-01-31T05:41:45;98136.25;;;1.91;84.65
38912;BME280;28444;48.056;14.408;2023-01-31T05:44:11;98142.84;;;1.84;84.59
38912;BME280;28444;48.056;14.408;2023-01-31T05:46:39;98151.44;;;1.83;84.42
38912;BME280;28444;48.056;14.408;2023-01-31T05:49:06;98165.16;;;1.85;84.09
38912;BME280;28444;48.056;14.408;2023-01-31T05:51:33;98164.47;;;1.90;84.37
38912;BME280;28444;48.056;14.408;2023-01-31T05:53:59;98165.44;;;1.87;83.35
38912;BME280;28444;48.056;14.408;2023-01-31T05:56:26;98167.16;;;1.90;83.12
38912;BME280;28444;48.056;14.408;2023-01-31T05:58:53;98172.28;;;1.88;83.77
38912;BME280;28444;48.056;14.408;2023-01-31T06:01:22;98164.47;;;1.90;82.72
38912;BME280;28444;48.056;14.408;2023-01-31T06:03:49;98180.88;;;1.92;82.64
38912;BME280;28444;48.056;14.408;2023-01-31T06:06:16;98172.28;;;1.88;82.33
38912;BME280;28444;48.056;14.408;2023-01-31T06:08:42;98178.69;;;1.96;83.04
38912;BME280;28444;48.056;14.408;2023-01-31T06:11:10;98172.53;;;1.90;82.47
38912;BME280;28444;48.056;14.408;2023-01-31T06:13:39;98180.63;;;1.96;82.67
38912;BME280;28444;48.056;14.408;2023-01-31T06:16:06;98167.66;;;1.94;83.34
38912;BME280;28444;48.056;14.408;2023-01-31T06:18:33;98174.00;;;1.91;82.57
38912;BME280;28444;48.056;14.408;2023-01-31T06:20:59;98177.69;;;1.88;83.12
38912;BME280;28444;48.056;14.408;2023-01-31T06:23:26;98182.34;;;1.87;82.52
38912;BME280;28444;48.056;14.408;2023-01-31T06:25:54;98190.69;;;1.89;82.85
38912;BME280;28444;48.056;14.408;2023-01-31T06:28:21;98190.19;;;1.91;82.26
38912;BME280;28444;48.056;14.408;2023-01-31T06:30:48;98206.16;;;1.89;82.86
38912;BME280;28444;48.056;14.408;2023-01-31T06:33:16;98196.06;;;1.84;82.97
38912;BME280;28444;48.056;14.408;2023-01-31T06:35:43;98195.34;;;1.83;83.49
38912;BME280;28444;48.056;14.408;2023-01-31T06:38:09;98196.81;;;1.84;83.34
38912;BME280;28444;48.056;14.408;2023-01-31T06:40:38;98184.53;;;1.78;83.25
38912;BME280;28444;48.056;14.408;2023-01-31T06:43:05;98193.13;;;1.82;82.50
38912;BME280;28444;48.056;14.408;2023-01-31T06:45:31;98187.47;;;1.80;82.66
38912;BME280;28444;48.056;14.408;2023-01-31T06:47:58;98204.66;;;1.82;83.00
38912;BME280;28444;48.056;14.408;2023-01-31T06:50:25;98208.81;;;1.83;83.39
38912;BME280;28444;48.056;14.408;2023-01-31T06:52:52;98220.13;;;1.82;83.60
38912;BME280;28444;48.056;14.408;2023-01-31T06:55:18;98213.47;;;1.83;83.18
38912;BME280;28444;48.056;14.408;2023-01-31T06:57:46;98205.13;;;1.81;82.89
38912;BME280;28444;48.056;14.408;2023-01-31T07:00:14;98209.06;;;1.80;83.24
38912;BME280;28444;48.056;14.408;2023-01-31T07:02:41;98213.97;;;1.87;83.69
38912;BME280;28444;48.056;14.408;2023-01-31T07:05:08;98213.75;;;1.90;83.24
38912;BME280;28444;48.056;14.408;2023-01-31T07:07:35;98213.97;;;1.87;82.85
38912;BME280;28444;48.056;14.408;2023-01-31T07:10:02;98215.72;;;1.90;82.26
38912;BME280;28444;48.056;14.408;2023-01-31T07:12:29;98206.38;;;1.91;81.99
38912;BME280;28444;48.056;14.408;2023-01-31T07:14:55;98198.28;;;1.85;83.17
38912;BME280;28444;48.056;14.408;2023-01-31T07:17:22;98208.59;;;1.87;82.98
38912;BME280;28444;48.056;14.408;2023-01-31T07:19:49;98202.47;;;1.86;83.15
38912;BME280;28444;48.056;14.408;2023-01-31T07:22:15;98211.28;;;1.87;83.15
38912;BME280;28444;48.056;14.408;2023-01-31T07:24:42;98213.00;;;1.90;81.66
38912;BME280;28444;48.056;14.408;2023-01-31T07:27:11;98234.59;;;1.90;82.56
38912;BME280;28444;48.056;14.408;2023-01-31T07:29:38;98220.38;;;1.89;81.75
38912;BME280;28444;48.056;14.408;2023-01-31T07:32:05;98226.50;;;1.90;81.65
38912;BME280;28444;48.056;14.408;2023-01-31T07:34:32;98230.19;;;1.92;81.32
38912;BME280;28444;48.056;14.408;2023-01-31T07:36:58;98227.72;;;1.95;82.05
38912;BME280;28444;48.056;14.408;2023-01-31T07:39:27;98221.56;;;1.88;81.38
38912;BME280;28444;48.056;14.408;2023-01-31T07:41:54;98239.03;;;1.99;82.31
38912;BME280;28444;48.056;14.408;2023-01-31T07:44:21;98236.56;;;1.95;81.93
38912;BME280;28444;48.056;14.408;2023-01-31T07:46:48;98239.50;;;1.97;82.15
38912;BME280;28444;48.056;14.408;2023-01-31T07:49:15;98245.66;;;1.98;82.71
38912;BME280;28444;48.056;14.408;2023-01-31T07:51:41;98248.34;;;1.98;82.44
38912;BME280;28444;48.056;14.408;2023-01-31T07:54:10;98247.84;;;1.99;82.34
38912;BME280;28444;48.056;14.408;2023-01-31T07:56:37;98248.34;;;1.98;81.95
38912;BME280;28444;48.056;14.408;2023-01-31T07:59:03;98254.97;;;1.97;81.56
38912;BME280;28444;48.056;14.408;2023-01-31T08:01:30;98270.44;;;2.02;81.22
38912;BME280;28444;48.056;14.408;2023-01-31T08:04:16;98269.19;;;2.03;80.97
38912;BME280;28444;48.056;14.408;2023-01-31T08:06:49;98279.97;;;2.03;80.17
38912;BME280;28444;48.056;14.408;2023-01-31T08:09:17;98274.63;;;2.14;80.29
38912;BME280;28444;48.056;14.408;2023-01-31T08:11:44;98282.72;;;2.14;79.97
38912;BME280;28444;48.056;14.408;2023-01-31T08:14:11;98290.53;;;2.06;80.80
38912;BME280;28444;48.056;14.408;2023-01-31T08:16:38;98288.09;;;2.08;79.96
38912;BME280;28444;48.056;14.408;2023-01-31T08:19:05;98301.38;;;2.12;80.80
38912;BME280;28444;48.056;14.408;2023-01-31T08:21:31;98290.06;;;2.13;80.99
38912;BME280;28444;48.056;14.408;2023-01-31T08:23:58;98295.97;;;2.12;80.59
38912;BME280;28444;48.056;14.408;2023-01-31T08:26:25;98296.22;;;2.08;79.88
38912;BME280;28444;48.056;14.408;2023-01-31T08:28:52;98300.59;;;2.06;81.25
38912;BME280;28444;48.056;14.408;2023-01-31T08:31:22;98297.94;;;2.11;80.64
38912;BME280;28444;48.056;14.408;2023-01-31T08:33:49;98300.38;;;2.09;80.50
38912;BME280;28444;48.056;14.408;2023-01-31T08:36:22;98297.19;;;2.11;80.48
38912;BME280;28444;48.056;14.408;2023-01-31T08:38:49;98308.00;;;2.16;79.86
38912;BME280;28444;48.056;14.408;2023-01-31T08:41:18;98305.28;;;2.16;79.74
38912;BME280;28444;48.056;14.408;2023-01-31T08:43:45;98318.31;;;2.18;80.80
38912;BME280;28444;48.056;14.408;2023-01-31T08:46:31;98311.19;;;2.21;80.07
38912;BME280;28444;48.056;14.408;2023-01-31T08:49:00;98305.53;;;2.13;80.11
38912;BME280;28444;48.056;14.408;2023-01-31T08:51:27;98285.41;;;2.08;80.76
38912;BME280;28444;48.056;14.408;2023-01-31T08:53:54;98302.09;;;2.12;80.65
38912;BME280;28444;48.056;14.408;2023-01-31T08:56:22;98299.44;;;2.18;79.77
38912;BME280;28444;48.056;14.408;2023-01-31T08:58:52;98306.75;;;2.17;80.54
38912;BME280;28444;48.056;14.408;2023-01-31T09:01:20;98307.00;;;2.14;80.23
38912;BME280;28444;48.056;14.408;2023-01-31T09:03:47;98303.84;;;2.21;79.89
38912;BME280;28444;48.056;14.408;2023-01-31T09:06:19;98310.50;;;2.26;80.86
38912;BME280;28444;48.056;14.408;2023-01-31T09:08:46;98317.88;;;2.36;79.29
38912;BME280;28444;48.056;14.408;2023-01-31T09:11:14;98305.59;;;2.47;78.73
38912;BME280;28444;48.056;14.408;2023-01-31T09:13:47;98317.41;;;2.49;79.51
38912;BME280;28444;48.056;14.408;2023-01-31T09:16:17;98312.97;;;2.40;79.13
38912;BME280;28444;48.056;14.408;2023-01-31T09:18:44;98315.16;;;2.42;79.15
38912;BME280;28444;48.056;14.408;2023-01-31T09:21:12;98317.38;;;2.38;79.26
38912;BME280;28444;48.056;14.408;2023-01-31T09:23:39;98317.63;;;2.34;79.49
38912;BME280;28444;48.056;14.408;2023-01-31T09:26:09;98329.16;;;2.35;79.07
38912;BME280;28444;48.056;14.408;2023-01-31T09:28:37;98315.66;;;2.29;79.15
38912;BME280;28444;48.056;14.408;2023-01-31T09:31:09;98326.22;;;2.33;79.68
38912;BME280;28444;48.056;14.408;2023-01-31T09:33:36;98315.91;;;2.37;79.11
38912;BME280;28444;48.056;14.408;2023-01-31T09:36:08;98312.94;;;2.35;79.55
38912;BME280;28444;48.056;14.408;2023-01-31T09:38:35;98321.31;;;2.42;79.16
38912;BME280;28444;48.056;14.408;2023-01-31T09:44:30;98319.38;;;2.54;77.55
38912;BME280;28444;48.056;14.408;2023-01-31T09:47:23;98304.16;;;2.57;78.74
38912;BME280;28444;48.056;14.408;2023-01-31T09:49:58;98307.34;;;2.55;77.99
38912;BME280;28444;48.056;14.408;2023-01-31T09:52:26;98313.00;;;2.69;78.37
38912;BME280;28444;48.056;14.408;2023-01-31T09:54:55;98314.97;;;2.68;78.26
38912;BME280;28444;48.056;14.408;2023-01-31T09:57:48;98307.59;;;2.74;77.06
38912;BME280;28444;48.056;14.408;2023-01-31T10:00:31;98298.03;;;2.84;76.68
38912;BME280;28444;48.056;14.408;2023-01-31T10:06:10;98300.72;;;2.68;77.13
38912;BME280;28444;48.056;14.408;2023-01-31T10:08:49;98307.34;;;2.72;77.26
38912;BME280;28444;48.056;14.408;2023-01-31T10:11:38;98295.34;;;2.73;76.96
38912;BME280;28444;48.056;14.408;2023-01-31T10:14:32;98291.91;;;2.61;76.91
38912;BME280;28444;48.056;14.408;2023-01-31T10:17:23;98277.38;;;2.64;77.80
38912;BME280;28444;48.056;14.408;2023-01-31T10:20:21;98288.69;;;2.57;78.15
38912;BME280;28444;48.056;14.408;2023-01-31T10:22:58;98282.31;;;2.66;77.75
38912;BME280;28444;48.056;14.408;2023-01-31T10:25:41;98285.72;;;2.72;77.71
38912;BME280;28444;48.056;14.408;2023-01-31T10:28:16;98282.06;;;2.81;76.59
38912;BME280;28444;48.056;14.408;2023-01-31T10:30:54;98279.13;;;2.84;76.96
38912;BME280;28444;48.056;14.408;2023-01-31T10:33:46;98279.84;;;2.85;77.34
38912;BME280;28444;48.056;14.408;2023-01-31T10:39:30;98274.69;;;2.93;75.33
38912;BME280;28444;48.056;14.408;2023-01-31T10:42:23;98264.88;;;2.95;74.70
38912;BME280;28444;48.056;14.408;2023-01-31T10:45:01;98264.13;;;3.00;75.19
38912;BME280;28444;48.056;14.408;2023-01-31T10:47:34;98264.59;;;3.04;76.04
38912;BME280;28444;48.056;14.408;2023-01-31T10:50:13;98259.41;;;3.12;74.62
38912;BME280;28444;48.056;14.408;2023-01-31T10:53:26;98258.69;;;3.17;73.62
38912;BME280;28444;48.056;14.408;2023-01-31T10:56:33;98263.34;;;3.28;72.75
38912;BME280;28444;48.056;14.408;2023-01-31T10:58:35;98255.72;;;3.32;73.24
38912;BME280;28444;48.056;14.408;2023-01-31T11:01:05;98253.47;;;3.36;72.68
38912;BME280;28444;48.056;14.408;2023-01-31T11:03:48;98253.25;;;3.28;72.36
38912;BME280;28444;48.056;14.408;2023-01-31T11:06:15;98257.44;;;3.24;70.93
38912;BME280;28444;48.056;14.408;2023-01-31T11:08:46;98261.38;;;3.23;70.66
38912;BME280;28444;48.056;14.408;2023-01-31T11:11:18;98245.41;;;3.19;69.85
38912;BME280;28444;48.056;14.408;2023-01-31T11:14:05;98248.34;;;3.21;71.00
38912;BME280;28444;48.056;14.408;2023-01-31T11:16:37;98240.75;;;3.14;68.83
38912;BME280;28444;48.056;14.408;2023-01-31T11:19:36;98244.91;;;3.21;69.03
38912;BME280;28444;48.056;14.408;2023-01-31T11:22:05;98243.94;;;3.24;68.82
38912;BME280;28444;48.056;14.408;2023-01-31T11:24:34;98236.56;;;3.24;69.39
38912;BME280;28444;48.056;14.408;2023-01-31T11:27:06;98237.53;;;3.16;68.24
38912;BME280;28444;48.056;14.408;2023-01-31T11:29:37;98229.69;;;3.18;67.01
38912;BME280;28444;48.056;14.408;2023-01-31T11:32:16;98223.78;;;3.25;67.77
38912;BME280;28444;48.056;14.408;2023-01-31T11:35:22;98229.69;;;3.23;67.18
38912;BME280;28444;48.056;14.408;2023-01-31T11:37:58;98227.41;;;3.38;66.30
38912;BME280;28444;48.056;14.408;2023-01-31T11:40:36;98216.56;;;3.44;66.67
38912;BME280;28444;48.056;14.408;2023-01-31T11:43:23;98215.84;;;3.49;65.76
38912;BME280;28444;48.056;14.408;2023-01-31T11:45:58;98200.34;;;3.44;66.01
38912;BME280;28444;48.056;14.408;2023-01-31T11:48:38;98210.19;;;3.47;65.83
38912;BME280;28444;48.056;14.408;2023-01-31T11:51:06;98202.31;;;3.49;64.77
38912;BME280;28444;48.056;14.408;2023-01-31T11:53:48;98204.97;;;3.60;64.83
38912;BME280;28444;48.056;14.408;2023-01-31T11:56:23;98199.09;;;3.56;64.40
38912;BME280;28444;48.056;14.408;2023-01-31T11:58:54;98194.19;;;3.49;63.63
38912;BME280;28444;48.056;14.408;2023-01-31T12:01:23;98216.81;;;3.46;63.69
38912;BME280;28444;48.056;14.408;2023-01-31T12:03:57;98205.75;;;3.44;64.76
38912;BME280;28444;48.056;14.408;2023-01-31T12:06:37;98206.25;;;3.43;64.68
38912;BME280;28444;48.056;14.408;2023-01-31T12:09:18;98209.69;;;3.43;65.12
38912;BME280;28444;48.056;14.408;2023-01-31T12:12:00;98215.09;;;3.43;64.80
38912;BME280;28444;48.056;14.408;2023-01-31T12:14:41;98215.38;;;3.40;66.35
38912;BME280;28444;48.056;14.408;2023-01-31T12:17:12;98199.41;;;3.36;63.84
38912;BME280;28444;48.056;14.408;2023-01-31T12:20:10;98216.38;;;3.31;63.52
38912;BME280;28444;48.056;14.408;2023-01-31T12:23:11;98203.81;;;3.33;64.51
38912;BME280;28444;48.056;14.408;2023-01-31T12:29:01;98199.13;;;3.45;66.46
38912;BME280;28444;48.056;14.408;2023-01-31T12:32:34;98199.66;;;3.38;65.30
38912;BME280;28444;48.056;14.408;2023-01-31T12:38:13;98184.16;;;3.33;65.33
38912;BME280;28444;48.056;14.408;2023-01-31T12:47:17;98172.88;;;3.29;67.57
38912;BME280;28444;48.056;14.408;2023-01-31T12:53:50;98165.53;;;3.24;69.01
38912;BME280;28444;48.056;14.408;2023-01-31T13:05:50;98154.28;;;3.08;69.73
38912;BME280;28444;48.056;14.408;2023-01-31T13:08:36;98152.59;;;3.05;70.55
38912;BME280;28444;48.056;14.408;2023-01-31T13:11:12;98146.16;;;3.08;69.82
38912;BME280;28444;48.056;14.408;2023-01-31T13:13:51;98154.00;;;3.12;69.50
38912;BME280;28444;48.056;14.408;2023-01-31T13:16:22;98152.56;;;3.11;69.06
38912;BME280;28444;48.056;14.408;2023-01-31T13:18:52;98156.50;;;3.10;69.57
38912;BME280;28444;48.056;14.408;2023-01-31T13:21:23;98147.88;;;3.11;69.90
38912;BME280;28444;48.056;14.408;2023-01-31T13:23:57;98151.06;;;3.16;69.29
38912;BME280;28444;48.056;14.408;2023-01-31T13:26:32;98152.81;;;3.07;70.84
38912;BME280;28444;48.056;14.408;2023-01-31T13:29:05;98139.75;;;3.11;69.19
38912;BME280;28444;48.056;14.408;2023-01-31T13:31:36;98139.53;;;3.09;69.64
38912;BME280;28444;48.056;14.408;2023-01-31T13:34:50;98144.69;;;3.07;69.19
38912;BME280;28444;48.056;14.408;2023-01-31T13:37:17;98124.06;;;3.10;69.15
38912;BME280;28444;48.056;14.408;2023-01-31T13:39:53;98127.75;;;3.12;70.03
38912;BME280;28444;48.056;14.408;2023-01-31T13:42:22;98124.53;;;3.20;68.40
38912;BME280;28444;48.056;14.408;2023-01-31T13:44:49;98127.69;;;3.24;70.05
38912;BME280;28444;48.056;14.408;2023-01-31T13:47:32;98139.00;;;3.22;70.08
38912;BME280;28444;48.056;14.408;2023-01-31T13:50:29;98129.41;;;3.21;69.40
38912;BME280;28444;48.056;14.408;2023-01-31T13:52:58;98136.53;;;3.19;70.68
38912;BME280;28444;48.056;14.408;2023-01-31T13:55:37;98129.94;;;3.14;71.48
38912;BME280;28444;48.056;14.408;2023-01-31T13:58:07;98126.75;;;3.10;70.96
38912;BME280;28444;48.056;14.408;2023-01-31T14:00:43;98123.06;;;3.13;70.62
38912;BME280;28444;48.056;14.408;2023-01-31T14:03:15;98112.25;;;3.13;71.12
38912;BME280;28444;48.056;14.408;2023-01-31T14:14:19;98113.75;;;3.03;71.72
38912;BME280;28444;48.056;14.408;2023-01-31T14:16:47;98108.13;;;3.01;71.29
38912;BME280;28444;48.056;14.408;2023-01-31T14:22:38;98123.34;;;3.04;72.37
38912;BME280;28444;48.056;14.408;2023-01-31T14:25:14;98118.22;;;2.95;72.15
38912;BME280;28444;48.056;14.408;2023-01-31T14:28:10;98114.28;;;2.96;72.57
38912;BME280;28444;48.056;14.408;2023-01-31T14:30:44;98110.59;;;2.93;71.53
38912;BME280;28444;48.056;14.408;2023-01-31T14:33:18;98098.53;;;3.00;72.20
38912;BME280;28444;48.056;14.408;2023-01-31T14:36:11;98088.94;;;3.04;72.03
38912;BME280;28444;48.056;14.408;2023-01-31T14:39:17;98087.47;;;3.03;71.85